IJK weather

Izhevsk Airport
Izhevsk, Udmurt Republic, Russia

Public forecast

Using degrees Celsius for public forecast. Weather courtesy of forecast.io.

Closest aviation weather report (METAR) to Izhevsk Airport

Closest report is Begishevo Airport, 88.5 nm (163.9 km) SSW. Retrieved 2020/04/02 00:30 UTC (9 minutes ago):

UWKE 020030Z 22005MPS 9999 SCT013 M03/M08 Q1003 R21/090070 NOSIG RMK QFE735/0980

Closest aviation forecast (TAF) to Izhevsk Airport

Closest forecast is Begishevo Airport, 88.5 nm (163.9 km) SSW. Retrieved 2020-04-02 00:24 UTC (15 minutes ago):

TAF UWKE 012245Z 0200/0224 23006G12MPS 9999 BKN016 TEMPO 0200/0212 27009G14MPS 3100 -SHSNRA BKN005 BKN011CB